Terminal Aerodrome Forecast
Issued by NWS Springfield, MO

Home | Current Version | Previous Version | Text Only | Print | Product List | Glossary On
Versions: 1 2 3 4 5 6 7 8 9 10 11 12 13 14 15 16 17 18 19
000
FTUS43 KSGF 290520
TAFSGF
TAF
KSGF 290520Z 2906/3006 06008KT P6SM BKN250
     FM291400 10011KT P6SM VCSH SCT050 BKN150
     FM291700 10013KT P6SM -SHRA OVC050
     FM291900 10014KT P6SM -SHRA OVC025
     FM300000 10016KT P6SM -SHRA OVC015 WS020/17045KT=

USA.gov is the U.S. government's official web portal to all federal, state and local government web resources and services.